.
WxDataArchive / Data Records for 2006-11-16
2006-11-15 November 2006 2006-11-17

Data Records for Thursday, 16 November 2006

Time	Temp	Chill	HIndex	Humid	Dewpt	 Wind 	HiWind	WindDir	Rain 	Barom 
-----	----	-----	------	-----	-----	------	------	-------	-----	----- 
00:00	41.9	41.9	41.9	93	40.0	3	8	45	0.00	29.520 
00:05	41.9	41.9	41.9	93	40.0	3	9	112	0.01	29.520 
00:10	41.9	39.5	41.9	93	40.0	4	12	90	0.01	29.520 
00:15	41.9	41.9	41.9	93	40.0	3	11	90	0.00	29.519 
00:20	41.9	41.9	41.9	93	40.0	3	7	22	0.01	29.519 
00:25	41.9	41.9	41.9	93	40.0	3	10	90	0.01	29.519 
00:30	41.9	41.9	41.9	93	40.0	2	6	45	0.01	29.504 
00:35	41.9	39.5	41.9	93	40.0	4	10	45	0.02	29.504 
00:40	42.1	42.1	42.1	93	40.2	3	12	45	0.01	29.504 
00:45	42.1	38.9	42.1	93	40.2	5	13	112	0.00	29.501 
00:50	42.1	39.7	42.1	93	40.2	4	10	90	0.00	29.501 
00:55	42.1	39.7	42.1	93	40.2	4	10	112	0.00	29.501 
01:00	42.2	42.2	42.2	93	40.3	3	9	22	0.00	29.498 
01:05	42.2	42.2	42.2	93	40.3	3	6	45	0.00	29.498 
01:10	42.2	42.2	42.2	93	40.3	3	10	112	0.00	29.498 
01:15	42.2	42.2	42.2	93	40.3	3	11	68	0.01	29.498 
01:20	42.2	42.2	42.2	93	40.3	2	7	45	0.00	29.498 
01:25	42.2	42.2	42.2	93	40.3	3	10	90	0.01	29.498 
01:30	42.2	42.2	42.2	93	40.3	3	9	112	0.02	29.501 
01:35	42.2	42.2	42.2	93	40.3	3	7	90	0.02	29.501 
01:40	42.1	42.1	42.1	93	40.2	3	10	68	0.01	29.501 
01:45	42.1	42.1	42.1	94	40.5	2	7	45	0.01	29.488 
01:50	42.1	42.1	42.1	94	40.5	2	6	68	0.02	29.488 
01:55	41.9	41.9	41.9	94	40.3	3	10	0	0.00	29.488 
02:00	41.9	41.9	41.9	94	40.3	2	7	112	0.01	29.483 
02:05	41.9	41.9	41.9	94	40.3	3	11	90	0.01	29.483 
02:10	41.9	41.9	41.9	95	40.6	3	11	90	0.00	29.483 
02:15	41.9	41.9	41.9	95	40.6	2	9	68	0.00	29.475 
02:20	41.9	41.9	41.9	95	40.6	3	7	112	0.00	29.475 
02:25	41.9	41.9	41.9	95	40.6	3	7	45	0.00	29.475 
02:30	41.9	41.9	41.9	95	40.6	2	6	45	0.01	29.471 
02:35	41.9	41.9	41.9	95	40.6	2	7	45	0.01	29.471 
02:40	41.9	41.9	41.9	95	40.6	2	10	22	0.00	29.471 
02:45	41.9	41.9	41.9	95	40.6	2	7	90	0.01	29.470 
02:50	41.9	41.9	41.9	95	40.6	2	7	0	0.01	29.470 
02:55	41.9	41.9	41.9	95	40.6	1	9	45	0.02	29.470 
03:00	41.9	41.9	41.9	95	40.6	2	5	90	0.00	29.457 
03:05	41.8	41.8	41.8	95	40.5	1	5	22	0.01	29.457 
03:10	41.8	41.8	41.8	95	40.5	2	7	68	0.00	29.457 
03:15	41.8	41.8	41.8	95	40.5	2	6	112	0.00	29.457 
03:20	41.8	41.8	41.8	95	40.5	3	13	68	0.00	29.457 
03:25	41.8	41.8	41.8	95	40.5	2	7	68	0.00	29.457 
03:30	41.8	41.8	41.8	94	40.2	2	5	68	0.01	29.458 
03:35	41.8	41.8	41.8	94	40.2	2	6	90	0.00	29.458 
03:40	41.8	41.8	41.8	94	40.2	2	11	112	0.00	29.458 
03:45	41.8	41.8	41.8	94	40.2	3	14	112	0.00	29.457 
03:50	41.8	41.8	41.8	94	40.2	2	8	68	0.00	29.457 
03:55	41.8	41.8	41.8	94	40.2	2	7	90	0.00	29.457 
04:00	41.8	41.8	41.8	94	40.2	3	6	68	0.00	29.456 
04:05	41.8	41.8	41.8	94	40.2	2	7	45	0.00	29.456 
04:10	41.6	41.6	41.6	94	40.0	2	5	45	0.01	29.456 
04:15	41.6	41.6	41.6	94	40.0	2	5	22	0.00	29.438 
04:20	41.6	41.6	41.6	94	40.0	1	5	45	0.01	29.438 
04:25	41.5	41.5	41.5	94	39.9	2	7	112	0.00	29.438 
04:30	41.5	41.5	41.5	95	40.2	2	7	68	0.00	29.427 
04:35	41.5	41.5	41.5	95	40.2	2	5	22	0.01	29.427 
04:40	41.5	41.5	41.5	95	40.2	2	11	45	0.00	29.427 
04:45	41.5	41.5	41.5	95	40.2	3	9	112	0.00	29.411 
04:50	41.5	41.5	41.5	95	40.2	2	6	45	0.00	29.411 
04:55	41.5	39.1	41.5	95	40.2	4	17	90	0.00	29.411 
05:00	41.5	41.5	41.5	94	39.9	3	9	22	0.00	29.412 
05:05	41.5	41.5	41.5	94	39.9	2	9	112	0.00	29.412 
05:10	41.5	39.1	41.5	94	39.9	4	14	45	0.00	29.412 
05:15	41.6	39.2	41.6	94	40.0	4	10	90	0.00	29.413 
05:20	41.6	39.2	41.6	93	39.7	4	10	112	0.00	29.413 
05:25	41.6	41.6	41.6	93	39.7	3	10	90	0.00	29.413 
05:30	41.6	41.6	41.6	93	39.7	3	13	112	0.00	29.390 
05:35	41.8	41.8	41.8	93	39.9	3	11	90	0.00	29.390 
05:40	41.8	41.8	41.8	93	39.9	3	10	45	0.00	29.390 
05:45	41.8	41.8	41.8	93	39.9	3	10	45	0.00	29.399 
05:50	41.8	41.8	41.8	93	39.9	3	12	90	0.00	29.399 
05:55	41.8	41.8	41.8	93	39.9	2	6	90	0.00	29.399 
06:00	41.8	41.8	41.8	93	39.9	3	9	22	0.00	29.400 
06:05	41.8	41.8	41.8	93	39.9	2	7	22	0.00	29.400 
06:10	41.8	41.8	41.8	93	39.9	3	9	112	0.01	29.400 
06:15	41.8	41.8	41.8	94	40.2	2	6	45	0.01	29.396 
06:20	41.6	41.6	41.6	94	40.0	2	6	135	0.01	29.396 
06:25	41.6	41.6	41.6	94	40.0	3	7	68	0.01	29.396 
06:30	41.6	41.6	41.6	94	40.0	2	7	45	0.00	29.394 
06:35	41.6	41.6	41.6	95	40.3	2	9	135	0.00	29.394 
06:40	41.6	41.6	41.6	95	40.3	2	9	112	0.00	29.394 
06:45	41.6	41.6	41.6	95	40.3	2	10	45	0.01	29.400 
06:50	41.6	41.6	41.6	95	40.3	2	6	68	0.00	29.400 
06:55	41.6	41.6	41.6	93	39.7	2	9	45	0.01	29.400 
07:00	41.6	41.6	41.6	95	40.3	1	5	45	0.01	29.406 
07:05	41.6	41.6	41.6	95	40.3	3	10	68	0.01	29.406 
07:10	41.6	41.6	41.6	95	40.3	2	5	90	0.01	29.406 
07:15	41.6	41.6	41.6	95	40.3	2	6	22	0.02	29.410 
07:20	41.6	41.6	41.6	95	40.3	2	4	112	0.01	29.410 
07:25	41.8	41.8	41.8	95	40.5	1	5	0	0.01	29.410 
07:30	41.8	41.8	41.8	94	40.2	2	7	90	0.01	29.406 
07:35	41.8	41.8	41.8	94	40.2	1	4	22	0.01	29.406 
07:40	41.8	41.8	41.8	94	40.2	1	4	22	0.01	29.406 
07:45	41.8	41.8	41.8	94	40.2	1	6	135	0.01	29.407 
07:50	41.8	41.8	41.8	94	40.2	1	9	90	0.00	29.407 
07:55	41.8	41.8	41.8	94	40.2	1	6	112	0.01	29.407 
08:00	41.8	41.8	41.8	94	40.2	2	5	45	0.01	29.409 
08:05	41.8	41.8	41.8	95	40.5	1	3	45	0.01	29.409 
08:10	41.8	41.8	41.8	95	40.5	1	4	0	0.01	29.409 
08:15	41.8	41.8	41.8	95	40.5	1	4	45	0.00	29.400 
08:20	41.8	41.8	41.8	95	40.5	2	7	45	0.02	29.400 
08:25	41.8	41.8	41.8	95	40.5	2	5	338	0.00	29.400 
08:30	41.6	41.6	41.6	95	40.3	1	4	338	0.01	29.396 
08:35	41.8	41.8	41.8	95	40.5	2	6	0	0.00	29.396 
08:40	41.8	41.8	41.8	95	40.5	2	6	90	0.02	29.396 
08:45	41.8	41.8	41.8	94	40.2	2	5	22	0.00	29.373 
08:50	41.8	41.8	41.8	94	40.2	2	9	22	0.01	29.373 
08:55	41.8	41.8	41.8	94	40.2	2	6	22	0.00	29.373 
09:00	41.6	41.6	41.6	94	40.0	2	5	338	0.00	29.359 
09:05	41.6	41.6	41.6	94	40.0	2	6	22	0.00	29.359 
09:10	41.6	41.6	41.6	94	40.0	2	4	0	0.00	29.359 
09:15	41.6	41.6	41.6	94	40.0	2	6	22	0.00	29.362 
09:20	41.6	41.6	41.6	94	40.0	1	7	22	0.00	29.362 
09:25	41.6	41.6	41.6	94	40.0	2	6	22	0.00	29.362 
09:30	41.8	41.8	41.8	94	40.2	2	6	0	0.00	29.365 
09:35	41.8	41.8	41.8	94	40.2	2	6	112	0.00	29.365 
09:40	41.8	41.8	41.8	93	39.9	1	6	0	0.00	29.365 
09:45	41.8	41.8	41.8	93	39.9	2	6	22	0.00	29.369 
09:50	41.8	41.8	41.8	93	39.9	1	4	112	0.00	29.369 
09:55	41.8	41.8	41.8	93	39.9	1	6	22	0.00	29.369 
10:00	41.8	41.8	41.8	93	39.9	2	5	22	0.00	29.367 
10:05	41.9	41.9	41.9	92	39.7	1	4	22	0.00	29.367 
10:10	41.9	41.9	41.9	93	40.0	1	9	0	0.00	29.367 
10:15	41.9	41.9	41.9	93	40.0	1	5	338	0.00	29.352 
10:20	42.1	42.1	42.1	92	39.9	2	6	22	0.00	29.352 
10:25	42.1	42.1	42.1	92	39.9	2	6	90	0.00	29.352 
10:30	42.2	42.2	42.2	92	40.0	2	4	112	0.00	29.382 
10:35	42.2	42.2	42.2	91	39.8	2	11	90	0.00	29.382 
10:40	42.3	42.3	42.3	91	39.9	2	9	112	0.00	29.382 
10:45	42.3	42.3	42.3	91	39.9	1	5	45	0.01	29.385 
10:50	42.3	42.3	42.3	91	39.9	1	5	90	0.00	29.385 
10:55	42.3	42.3	42.3	91	39.9	2	6	90	0.01	29.385 
11:00	42.3	42.3	42.3	92	40.1	1	3	22	0.00	29.383 
11:05	42.3	42.3	42.3	92	40.1	1	3	135	0.00	29.383 
11:10	42.3	42.3	42.3	92	40.1	1	5	90	0.01	29.383 
11:15	42.3	42.3	42.3	92	40.1	1	4	68	0.00	29.380 
11:20	42.3	42.3	42.3	93	40.4	1	5	158	0.01	29.380 
11:25	42.3	42.3	42.3	93	40.4	1	5	135	0.00	29.380 
11:30	42.3	42.3	42.3	93	40.4	1	4	45	0.00	29.380 
11:35	42.3	42.3	42.3	93	40.4	0	2	0	0.00	29.380 
11:40	42.3	42.3	42.3	94	40.7	0	2	0	0.00	29.380 
11:45	42.3	42.3	42.3	94	40.7	0	3	22	0.00	29.379 
11:50	42.3	42.3	42.3	94	40.7	0	3	338	0.00	29.379 
11:55	42.5	42.5	42.5	94	40.9	0	1	68	0.00	29.379 
12:00	42.5	42.5	42.5	94	40.9	0	2	68	0.00	29.379 
12:05	42.5	42.5	42.5	95	41.2	0	1	68	0.00	29.379 
12:10	42.6	42.6	42.6	95	41.3	0	1	45	0.00	29.379 
12:15	42.5	42.5	42.5	95	41.2	1	4	0	0.00	29.375 
12:20	42.5	42.5	42.5	95	41.2	0	3	315	0.00	29.375 
12:25	42.5	42.5	42.5	95	41.2	0	3	0	0.00	29.375 
12:30	42.5	42.5	42.5	95	41.2	1	4	0	0.00	29.379 
12:35	42.5	42.5	42.5	95	41.2	1	6	112	0.00	29.379 
12:40	42.5	42.5	42.5	95	41.2	0	3	112	0.00	29.379 
12:45	42.5	42.5	42.5	95	41.2	0	2	135	0.00	29.377 
12:50	42.5	42.5	42.5	95	41.2	0	3	22	0.00	29.377 
12:55	42.5	42.5	42.5	95	41.2	0	2	22	0.01	29.377 
13:00	42.5	42.5	42.5	95	41.2	0	1	0	0.00	29.372 
13:05	42.3	42.3	42.3	95	41.0	1	3	22	0.00	29.372 
13:10	42.3	42.3	42.3	95	41.0	0	1	0	0.00	29.372 
13:15	42.3	42.3	42.3	95	41.0	0	1	0	0.00	29.373 
13:20	42.3	42.3	42.3	95	41.0	0	2	0	0.00	29.373 
13:25	42.5	42.5	42.5	95	41.2	0	2	338	0.00	29.373 
13:30	42.5	42.5	42.5	96	41.4	0	3	338	0.00	29.373 
13:35	42.5	42.5	42.5	96	41.4	0	2	338	0.00	29.373 
13:40	42.5	42.5	42.5	96	41.4	0	1	338	0.00	29.373 
13:45	42.3	42.3	42.3	96	41.2	1	2	338	0.00	29.374 
13:50	42.3	42.3	42.3	96	41.2	1	3	292	0.00	29.374 
13:55	42.3	42.3	42.3	96	41.2	0	2	0	0.00	29.374 
14:00	42.3	42.3	42.3	96	41.2	1	2	338	0.00	29.373 
14:05	42.3	42.3	42.3	96	41.2	1	3	0	0.01	29.373 
14:10	42.3	42.3	42.3	96	41.2	1	4	0	0.00	29.373 
14:15	42.3	42.3	42.3	96	41.2	1	4	22	0.00	29.380 
14:20	42.3	42.3	42.3	96	41.2	1	3	338	0.00	29.380 
14:25	42.3	42.3	42.3	96	41.2	1	3	292	0.00	29.380 
14:30	42.3	42.3	42.3	96	41.2	1	4	270	0.01	29.387 
14:35	42.3	42.3	42.3	96	41.2	1	4	292	0.00	29.387 
14:40	42.3	42.3	42.3	96	41.2	1	3	315	0.00	29.387 
14:45	42.3	42.3	42.3	96	41.2	0	2	292	0.00	29.395 
14:50	42.3	42.3	42.3	96	41.2	1	3	292	0.01	29.395 
14:55	42.2	42.2	42.2	96	41.1	1	3	0	0.00	29.395 
15:00	42.2	42.2	42.2	96	41.1	1	3	315	0.00	29.402 
15:05	42.1	42.1	42.1	96	41.0	1	2	315	0.00	29.402 
15:10	42.1	42.1	42.1	96	41.0	1	4	315	0.00	29.402 
15:15	41.8	41.8	41.8	95	40.5	2	4	338	0.01	29.410 
15:20	41.8	41.8	41.8	95	40.5	1	3	292	0.00	29.410 
15:25	41.5	41.5	41.5	95	40.2	1	4	315	0.00	29.410 
15:30	41.3	41.3	41.3	94	39.7	1	4	315	0.00	29.419 
15:35	41.2	41.2	41.2	94	39.6	2	3	338	0.00	29.419 
15:40	41.1	41.1	41.1	94	39.5	1	6	315	0.00	29.419 
15:45	41.1	41.1	41.1	94	39.5	1	5	315	0.00	29.428 
15:50	40.8	40.8	40.8	94	39.2	2	6	338	0.00	29.428 
15:55	40.5	40.5	40.5	93	38.6	2	6	315	0.00	29.428 
16:00	40.3	40.3	40.3	93	38.4	2	9	338	0.00	29.429 
16:05	40.2	40.2	40.2	93	38.3	2	4	338	0.00	29.429 
16:10	40.2	40.2	40.2	93	38.3	1	3	292	0.00	29.429 
16:15	40.1	40.1	40.1	93	38.2	1	5	270	0.00	29.438 
16:20	39.9	39.9	39.9	93	38.0	2	5	338	0.00	29.438 
16:25	39.9	39.9	39.9	93	38.0	2	6	338	0.00	29.438 
16:30	39.8	39.8	39.8	93	37.9	2	6	0	0.00	29.446 
16:35	39.6	39.6	39.6	93	37.7	2	5	0	0.00	29.446 
16:40	39.6	39.6	39.6	92	37.5	1	6	338	0.00	29.446 
16:45	39.6	39.6	39.6	92	37.5	1	4	338	0.00	29.459 
16:50	39.6	39.6	39.6	92	37.5	1	4	22	0.00	29.459 
16:55	39.5	39.5	39.5	92	37.4	2	5	292	0.00	29.459 
17:00	39.5	39.5	39.5	92	37.4	1	5	0	0.00	29.464 
17:05	39.5	39.5	39.5	92	37.4	1	4	338	0.00	29.464 
17:10	39.5	39.5	39.5	92	37.4	2	5	292	0.00	29.464 
17:15	39.5	39.5	39.5	92	37.4	1	6	315	0.00	29.476 
17:20	39.5	39.5	39.5	92	37.4	1	4	315	0.00	29.476 
17:25	39.5	39.5	39.5	92	37.4	1	3	270	0.00	29.476 
17:30	39.3	39.3	39.3	92	37.2	1	4	338	0.00	29.486 
17:35	39.3	39.3	39.3	92	37.2	1	6	292	0.00	29.486 
17:40	39.3	39.3	39.3	92	37.2	1	4	315	0.00	29.486 
17:45	39.3	39.3	39.3	92	37.2	1	2	315	0.00	29.493 
17:50	39.2	39.2	39.2	92	37.1	2	5	315	0.00	29.493 
17:55	39.2	39.2	39.2	92	37.1	1	3	338	0.00	29.493 
18:00	39.2	39.2	39.2	92	37.1	1	3	315	0.00	29.502 
18:05	39.2	39.2	39.2	92	37.1	1	3	292	0.00	29.502 
18:10	39.2	39.2	39.2	92	37.1	1	5	0	0.00	29.502 
18:15	39.2	39.2	39.2	92	37.1	1	5	338	0.00	29.509 
18:20	39.2	39.2	39.2	93	37.3	1	4	292	0.00	29.509 
18:25	39.1	39.1	39.1	93	37.2	2	5	270	0.00	29.509 
18:30	39.1	39.1	39.1	93	37.2	1	2	315	0.00	29.515 
18:35	38.9	38.9	38.9	93	37.1	1	3	0	0.00	29.515 
18:40	38.8	38.8	38.8	93	37.0	2	5	292	0.00	29.515 
18:45	38.8	38.8	38.8	94	37.2	2	4	338	0.00	29.522 
18:50	38.6	38.6	38.6	94	37.0	1	5	338	0.00	29.522 
18:55	38.5	38.5	38.5	94	36.9	2	6	270	0.00	29.522 
19:00	38.3	38.3	38.3	94	36.7	2	6	338	0.00	29.526 
19:05	38.0	38.0	38.0	93	36.2	2	5	292	0.00	29.526 
19:10	37.9	37.9	37.9	93	36.1	2	7	315	0.00	29.526 
19:15	37.6	37.6	37.6	92	35.5	3	7	315	0.00	29.535 
19:20	37.6	37.6	37.6	92	35.5	2	7	338	0.00	29.535 
19:25	37.6	37.6	37.6	92	35.5	2	5	292	0.00	29.535 
19:30	37.6	37.6	37.6	92	35.5	2	6	315	0.00	29.541 
19:35	37.3	37.3	37.3	92	35.2	2	4	338	0.00	29.541 
19:40	37.2	37.2	37.2	92	35.1	2	4	338	0.00	29.541 
19:45	37.0	37.0	37.0	91	34.6	2	6	338	0.00	29.555 
19:50	37.0	37.0	37.0	92	34.9	2	5	292	0.01	29.555 
19:55	36.9	36.9	36.9	92	34.8	1	4	315	0.00	29.555 
20:00	36.6	36.6	36.6	92	34.5	2	5	292	0.00	29.562 
20:05	36.5	36.5	36.5	92	34.4	1	2	315	0.00	29.562 
20:10	36.5	36.5	36.5	92	34.4	1	4	315	0.00	29.562 
20:15	36.5	36.5	36.5	92	34.4	1	3	338	0.00	29.574 
20:20	36.3	36.3	36.3	93	34.5	1	4	292	0.00	29.574 
20:25	36.3	36.3	36.3	93	34.5	2	5	338	0.00	29.574 
20:30	36.3	36.3	36.3	93	34.5	1	3	292	0.00	29.582 
20:35	36.3	36.3	36.3	93	34.5	1	3	292	0.01	29.582 
20:40	36.3	36.3	36.3	93	34.5	1	3	338	0.00	29.582 
20:45	36.3	36.3	36.3	93	34.5	1	2	338	0.00	29.589 
20:50	36.3	36.3	36.3	93	34.5	2	6	292	0.00	29.589 
20:55	36.3	36.3	36.3	93	34.5	1	2	315	0.00	29.589 
21:00	36.3	36.3	36.3	93	34.5	1	4	270	0.00	29.599 
21:05	36.2	36.2	36.2	93	34.4	1	4	338	0.00	29.599 
21:10	36.2	36.2	36.2	93	34.4	1	3	292	0.00	29.599 
21:15	36.0	36.0	36.0	93	34.2	1	4	292	0.00	29.607 
21:20	36.0	36.0	36.0	93	34.2	1	2	315	0.00	29.607 
21:25	35.9	35.9	35.9	93	34.1	1	3	315	0.01	29.607 
21:30	35.9	35.9	35.9	93	34.1	0	2	315	0.00	29.618 
21:35	35.8	35.8	35.8	93	34.0	1	3	315	0.00	29.618 
21:40	35.8	35.8	35.8	93	34.0	1	2	315	0.00	29.618 
21:45	35.8	35.8	35.8	93	34.0	0	1	315	0.00	29.620 
21:50	35.6	35.6	35.6	93	33.8	1	4	315	0.00	29.620 
21:55	35.6	35.6	35.6	93	33.8	0	3	292	0.01	29.620 
22:00	35.6	35.6	35.6	93	33.8	0	2	315	0.00	29.622 
22:05	35.6	35.6	35.6	94	34.0	0	1	338	0.00	29.622 
22:10	35.6	35.6	35.6	94	34.0	0	2	338	0.00	29.622 
22:15	35.8	35.8	35.8	94	34.2	0	1	338	0.00	29.628 
22:20	35.8	35.8	35.8	94	34.2	0	1	338	0.00	29.628 
22:25	35.9	35.9	35.9	94	34.3	0	1	338	0.00	29.628 
22:30	35.9	35.9	35.9	94	34.3	0	1	292	0.00	29.634 
22:35	35.9	35.9	35.9	94	34.3	0	1	292	0.00	29.634 
22:40	35.9	35.9	35.9	94	34.3	0	1	292	0.01	29.634 
22:45	36.0	36.0	36.0	94	34.4	0	1	292	0.00	29.637 
22:50	36.0	36.0	36.0	94	34.4	0	1	292	0.00	29.637 
22:55	36.0	36.0	36.0	95	34.7	0	1	292	0.00	29.637 
23:00	36.2	36.2	36.2	95	34.9	0	1	292	0.00	29.639 
23:05	36.2	36.2	36.2	95	34.9	0	1	292	0.00	29.639 
23:10	36.3	36.3	36.3	95	35.0	0	1	292	0.00	29.639 
23:15	36.3	36.3	36.3	95	35.0	0	2	270	0.00	29.646 
23:20	36.5	36.5	36.5	95	35.2	0	2	270	0.00	29.646 
23:25	36.6	36.6	36.6	95	35.3	0	2	270	0.00	29.646 
23:30	36.8	36.8	36.8	96	35.8	0	3	248	0.00	29.649 
23:35	36.9	36.9	36.9	96	35.9	0	1	248	0.00	29.649 
23:40	37.0	37.0	37.0	96	36.0	0	1	248	0.00	29.649 
23:45	37.0	37.0	37.0	96	36.0	1	3	248	0.00	29.653 
23:50	37.2	37.2	37.2	96	36.2	0	1	270	0.00	29.653 
23:55	37.2	37.2	37.2	96	36.2	1	3	270	0.00	29.653 

CoCoRaHS
IN-AL-39
A2 Web Hosting
Creative Commons License
GoDaddy
Look for:

loaded 2017-10-17 00:10:04 • last modified 2010-11-18 10:43:29
Privacy PolicyDisclaimer
• wx.awcolley.com is powered by PmWiki v.2002016 •
• all content (unless otherwise noted) © 2017 A W Colley